createdAt,value
2023-04-20T00:02:25.564Z,34.27
2023-04-20T00:04:55.580Z,38.03
2023-04-20T00:07:28.076Z,39.87
2023-04-20T00:09:57.195Z,36.53
2023-04-20T00:12:26.117Z,34.97
2023-04-20T00:14:56.416Z,37.83
2023-04-20T00:17:29.555Z,33.63
2023-04-20T00:19:59.574Z,36.43
2023-04-20T00:22:31.490Z,33.97
2023-04-20T00:25:00.738Z,33.17
2023-04-20T00:27:31.907Z,33.50
2023-04-20T00:30:01.331Z,33.57
2023-04-20T00:32:32.949Z,34.50
2023-04-20T00:35:03.328Z,29.47
2023-04-20T00:37:32.637Z,32.53
2023-04-20T00:40:02.153Z,29.23
2023-04-20T00:42:32.962Z,36.47
2023-04-20T00:45:03.109Z,35.30
2023-04-20T00:47:34.660Z,33.00
2023-04-20T00:50:06.332Z,32.23
2023-04-20T00:52:36.344Z,32.70
2023-04-20T00:55:09.662Z,38.63
2023-04-20T00:57:40.647Z,39.43
2023-04-20T01:00:11.838Z,29.47
2023-04-20T01:02:43.030Z,34.27
2023-04-20T01:05:12.545Z,32.70
2023-04-20T01:07:41.953Z,30.07
2023-04-20T01:10:12.538Z,28.97
2023-04-20T01:12:42.590Z,30.03
2023-04-20T01:15:13.450Z,30.43
2023-04-20T01:17:44.685Z,31.10
2023-04-20T01:20:14.919Z,34.57
2023-04-20T01:22:50.223Z,31.47
2023-04-20T01:25:21.038Z,32.53
2023-04-20T01:27:50.580Z,30.90
2023-04-20T01:30:19.468Z,31.60
2023-04-20T01:32:49.265Z,28.57
2023-04-20T01:35:18.544Z,29.60
2023-04-20T01:37:51.284Z,27.10
2023-04-20T01:40:20.964Z,26.83
2023-04-20T01:42:49.860Z,27.70
2023-04-20T01:45:18.937Z,28.17
2023-04-20T01:47:48.186Z,28.40
2023-04-20T01:50:18.011Z,27.87
2023-04-20T01:52:50.146Z,27.83
2023-04-20T01:55:20.309Z,26.83
2023-04-20T01:57:49.581Z,27.23
2023-04-20T02:00:19.055Z,29.23
2023-04-20T02:02:48.143Z,27.27
2023-04-20T02:05:19.330Z,27.23
2023-04-20T02:07:50.345Z,25.87
2023-04-20T02:10:19.807Z,30.43
2023-04-20T02:12:49.741Z,27.40
2023-04-20T02:15:19.081Z,28.50
2023-04-20T02:17:52.882Z,28.73
2023-04-20T02:20:22.131Z,28.33
2023-04-20T02:22:53.562Z,24.73
2023-04-20T02:25:23.342Z,27.63
2023-04-20T02:27:55.633Z,26.27
2023-04-20T02:30:25.188Z,25.80
2023-04-20T02:32:54.469Z,26.00
2023-04-20T02:35:23.472Z,28.13
2023-04-20T02:37:53.872Z,27.47
2023-04-20T02:40:24.527Z,28.47
2023-04-20T02:42:54.789Z,26.47
2023-04-20T02:45:24.472Z,28.23
2023-04-20T02:47:55.241Z,31.13
2023-04-20T02:50:24.512Z,28.20
2023-04-20T02:53:05.189Z,27.03
2023-04-20T02:55:36.739Z,28.40
2023-04-20T02:58:19.365Z,27.43
2023-04-20T03:01:07.665Z,28.87
2023-04-20T03:03:39.853Z,28.53
2023-04-20T03:06:13.596Z,34.43
2023-04-20T03:08:50.427Z,29.33
2023-04-20T03:11:47.659Z,28.53
2023-04-20T03:14:29.108Z,28.57
2023-04-20T03:16:59.205Z,26.83
2023-04-20T03:19:28.548Z,31.20
2023-04-20T03:21:57.539Z,32.87
2023-04-20T03:24:28.611Z,29.47
2023-04-20T03:27:01.276Z,27.87
2023-04-20T03:29:38.944Z,30.80
2023-04-20T03:32:08.316Z,32.63
2023-04-20T03:34:37.189Z,36.17
2023-04-20T03:37:07.902Z,30.87
2023-04-20T03:39:38.771Z,35.00
2023-04-20T03:42:08.034Z,35.83
2023-04-20T03:44:37.463Z,37.97
2023-04-20T03:47:08.061Z,35.70
2023-04-20T03:49:37.723Z,34.80
2023-04-20T03:52:09.427Z,35.10
2023-04-20T03:54:41.226Z,36.67
2023-04-20T03:57:11.154Z,32.60
2023-04-20T03:59:41.495Z,34.27
2023-04-20T04:02:13.743Z,39.20
2023-04-20T04:04:45.963Z,34.17
2023-04-20T04:10:42.261Z,36.20
2023-04-20T04:13:11.544Z,39.80
2023-04-20T04:15:43.073Z,37.13
2023-04-20T04:18:15.539Z,36.87
2023-04-20T04:20:44.956Z,36.57
2023-04-20T04:23:15.092Z,41.80
2023-04-20T04:25:52.776Z,39.13
2023-04-20T04:28:26.561Z,36.13
2023-04-20T04:31:17.716Z,40.53
2023-04-20T04:33:48.262Z,37.97
2023-04-20T04:36:29.318Z,42.83
2023-04-20T04:39:00.310Z,40.30
2023-04-20T04:41:37.476Z,44.43
2023-04-20T04:44:17.364Z,42.67
2023-04-20T04:46:48.180Z,40.83
2023-04-20T04:49:17.296Z,40.03
2023-04-20T04:51:47.418Z,39.93
2023-04-20T04:54:16.400Z,41.70
2023-04-20T04:56:46.867Z,43.60
2023-04-20T04:59:16.311Z,49.80
2023-04-20T05:01:45.389Z,40.57
2023-04-20T05:04:15.131Z,40.30
2023-04-20T05:06:44.233Z,43.70
2023-04-20T05:09:13.238Z,43.60
2023-04-20T05:11:42.658Z,43.80
2023-04-20T05:14:13.348Z,39.17
2023-04-20T05:16:42.042Z,49.33
2023-04-20T05:19:10.656Z,43.67
2023-04-20T05:21:40.168Z,38.13
2023-04-20T05:24:09.570Z,40.07
2023-04-20T05:26:38.654Z,47.20
2023-04-20T05:29:07.938Z,44.87
2023-04-20T05:31:37.916Z,44.27
2023-04-20T05:34:07.289Z,43.93
2023-04-20T05:36:36.634Z,44.30
2023-04-20T05:39:06.477Z,46.90
2023-04-20T05:41:39.136Z,43.77
2023-04-20T05:44:08.238Z,50.07
2023-04-20T05:46:38.328Z,43.60
2023-04-20T05:49:08.088Z,45.03
2023-04-20T05:51:37.122Z,47.93
2023-04-20T05:54:06.919Z,47.90
2023-04-20T05:56:36.120Z,49.67
2023-04-20T05:59:05.648Z,46.37
2023-04-20T06:01:34.849Z,45.90
2023-04-20T06:04:05.952Z,52.33
2023-04-20T06:06:35.711Z,52.80
2023-04-20T06:09:06.647Z,53.57
2023-04-20T06:11:35.977Z,48.60
2023-04-20T06:14:05.276Z,47.50
2023-04-20T06:16:34.384Z,48.03
2023-04-20T06:19:05.014Z,48.07
2023-04-20T06:21:35.686Z,49.73
2023-04-20T06:24:04.957Z,48.70
2023-04-20T06:26:35.365Z,47.63
2023-04-20T06:29:04.562Z,46.03
2023-04-20T06:31:33.261Z,51.45
2023-04-20T06:34:01.870Z,53.20
2023-04-20T06:36:34.992Z,50.00
2023-04-20T06:39:06.117Z,49.23
2023-04-20T06:41:34.960Z,43.57
2023-04-20T06:44:10.734Z,46.97
2023-04-20T06:46:42.301Z,48.50
2023-04-20T06:49:11.452Z,46.83
2023-04-20T06:51:42.551Z,49.53
2023-04-20T06:54:11.458Z,47.63
2023-04-20T06:56:40.967Z,44.53
2023-04-20T06:59:11.090Z,48.13
2023-04-20T07:01:42.113Z,42.47
2023-04-20T07:04:12.282Z,43.20
2023-04-20T07:06:42.727Z,41.77
2023-04-20T07:09:12.688Z,48.40
2023-04-20T07:14:50.109Z,47.30
2023-04-20T07:17:19.136Z,51.47
2023-04-20T07:19:48.547Z,45.83
2023-04-20T07:22:19.500Z,46.40
2023-04-20T07:24:48.020Z,45.73
2023-04-20T07:27:17.034Z,42.67
2023-04-20T07:29:46.414Z,45.00
2023-04-20T07:32:16.485Z,46.43
2023-04-20T07:34:45.369Z,45.37
2023-04-20T07:37:14.249Z,45.17
2023-04-20T07:39:44.853Z,43.23
2023-04-20T07:42:14.143Z,46.53
2023-04-20T07:44:43.473Z,47.27
2023-04-20T07:47:11.958Z,51.23
2023-04-20T07:49:41.321Z,49.03
2023-04-20T07:52:16.889Z,47.40
2023-04-20T07:54:48.627Z,45.17
2023-04-20T07:57:18.312Z,41.23
2023-04-20T07:59:48.858Z,52.80
2023-04-20T08:02:18.995Z,43.17
2023-04-20T08:04:49.481Z,43.23
2023-04-20T08:07:18.915Z,39.70
2023-04-20T08:09:49.476Z,42.13
2023-04-20T08:12:18.195Z,42.60
2023-04-20T08:14:47.609Z,38.73
2023-04-20T08:17:17.170Z,43.60
2023-04-20T08:19:46.565Z,44.77
2023-04-20T08:22:15.907Z,39.67
2023-04-20T08:24:48.849Z,40.27
2023-04-20T08:27:19.492Z,44.87
2023-04-20T08:29:49.883Z,40.83
2023-04-20T08:32:23.206Z,42.87
2023-04-20T08:34:52.176Z,45.90
2023-04-20T08:37:21.506Z,47.27
2023-04-20T08:39:51.879Z,47.53
2023-04-20T08:42:23.647Z,50.40
2023-04-20T08:44:55.290Z,47.43
2023-04-20T08:47:24.725Z,54.47
2023-04-20T08:49:55.904Z,51.10
2023-04-20T08:52:25.298Z,49.17
2023-04-20T08:54:57.349Z,49.43
2023-04-20T08:57:28.814Z,51.30
2023-04-20T09:00:00.420Z,50.17
2023-04-20T09:02:29.469Z,50.50
2023-04-20T09:05:09.095Z,49.30
2023-04-20T09:07:38.433Z,52.97
2023-04-20T09:10:08.249Z,50.13
2023-04-20T09:12:44.730Z,51.43
2023-04-20T09:15:25.944Z,48.00
2023-04-20T09:17:55.413Z,53.60
2023-04-20T09:20:32.128Z,47.57
2023-04-20T09:23:13.622Z,47.77
2023-04-20T09:25:43.966Z,50.30
2023-04-20T09:28:15.279Z,47.13
2023-04-20T09:30:46.262Z,45.50
2023-04-20T09:33:15.804Z,42.97
2023-04-20T09:35:46.375Z,46.30
2023-04-20T09:38:18.491Z,49.47
2023-04-20T09:40:47.594Z,41.83
2023-04-20T09:43:25.229Z,41.22
2023-04-20T09:45:56.580Z,38.88
2023-04-20T09:48:26.012Z,36.63
2023-04-20T09:50:55.703Z,39.03
2023-04-20T09:53:25.560Z,34.55
2023-04-20T09:55:54.403Z,37.03
2023-04-20T09:58:24.568Z,41.30
2023-04-20T10:00:53.898Z,37.25
2023-04-20T10:03:22.883Z,37.35
2023-04-20T10:05:55.687Z,36.42
2023-04-20T10:08:26.155Z,32.97
2023-04-20T10:10:55.021Z,36.22
2023-04-20T10:13:35.776Z,34.30
2023-04-20T10:16:04.734Z,36.67
2023-04-20T10:18:33.523Z,36.47
2023-04-20T10:21:09.852Z,36.60
2023-04-20T10:23:50.675Z,36.22
2023-04-20T10:26:19.458Z,35.72
2023-04-20T10:28:49.769Z,30.92
2023-04-20T10:31:20.685Z,34.15
2023-04-20T10:33:59.956Z,31.83
2023-04-20T10:36:31.614Z,41.55
2023-04-20T10:39:02.768Z,32.53
2023-04-20T10:41:31.755Z,34.78
2023-04-20T10:44:10.319Z,36.42
2023-04-20T10:46:39.471Z,37.50
2023-04-20T10:49:09.293Z,35.85
2023-04-20T10:51:37.883Z,35.42
2023-04-20T10:54:08.473Z,33.88
2023-04-20T10:56:42.186Z,32.60
2023-04-20T10:59:14.711Z,35.40
2023-04-20T11:01:44.203Z,34.45
2023-04-20T11:04:14.475Z,35.58
2023-04-20T11:06:47.147Z,36.35
2023-04-20T11:09:20.682Z,33.05
2023-04-20T11:12:00.666Z,32.53
2023-04-20T11:14:31.772Z,32.95
2023-04-20T11:17:00.708Z,34.15
2023-04-20T11:19:30.715Z,38.25
2023-04-20T11:22:00.394Z,32.88
2023-04-20T11:24:31.479Z,32.22
2023-04-20T11:27:02.572Z,37.92
2023-04-20T11:29:38.503Z,30.98
2023-04-20T11:32:09.920Z,33.72
2023-04-20T11:34:43.427Z,30.65
2023-04-20T11:37:14.049Z,29.63
2023-04-20T11:39:43.506Z,34.50
2023-04-20T11:42:12.326Z,34.03
2023-04-20T11:44:42.946Z,34.70
2023-04-20T11:47:11.950Z,35.42
2023-04-20T11:49:41.198Z,36.20
2023-04-20T11:52:10.279Z,36.30
2023-04-20T11:54:39.929Z,31.42
2023-04-20T11:57:09.187Z,32.80
2023-04-20T11:59:39.211Z,32.83
2023-04-20T12:02:09.773Z,33.92
2023-04-20T13:34:29.079Z,24.73
2023-04-20T13:36:58.604Z,26.85
2023-04-20T13:39:28.214Z,29.50
2023-04-20T13:41:57.198Z,23.92
2023-04-20T13:44:26.174Z,25.38
2023-04-20T13:46:55.296Z,30.60
2023-04-20T13:49:26.400Z,26.30
2023-04-20T14:16:01.225Z,21.58
2023-04-20T14:18:31.659Z,17.58
2023-04-20T14:21:00.838Z,14.68
2023-04-20T14:23:29.498Z,20.40
2023-04-20T14:26:00.250Z,14.73
2023-04-20T14:28:30.712Z,13.93
2023-04-20T14:31:01.288Z,19.48
2023-04-20T14:33:30.598Z,18.50
2023-04-20T14:35:59.979Z,17.02
2023-04-20T14:42:54.554Z,15.02
2023-04-20T14:45:24.069Z,12.10
2023-04-20T14:47:55.756Z,15.48
2023-04-20T14:50:28.099Z,12.32
2023-04-20T14:52:58.144Z,18.52
2023-04-20T14:55:27.648Z,13.38
2023-04-20T14:57:59.724Z,19.83
2023-04-20T15:00:29.858Z,14.80
2023-04-20T15:03:00.069Z,14.73
2023-04-20T15:05:30.430Z,15.48
2023-04-20T15:07:59.592Z,7.88
2023-04-20T15:10:28.995Z,12.27
2023-04-20T15:13:02.157Z,14.30
2023-04-20T15:15:46.942Z,17.98
2023-04-20T15:18:17.763Z,14.70
2023-04-20T15:20:47.746Z,17.17
2023-04-20T15:23:17.069Z,12.27
2023-04-20T15:25:45.992Z,17.45
2023-04-20T15:28:16.935Z,13.10
2023-04-20T15:30:46.428Z,19.30
2023-04-20T15:33:15.582Z,14.18
2023-04-20T15:35:44.949Z,12.07
2023-04-20T15:38:13.726Z,13.20
2023-04-20T15:40:42.685Z,17.50
2023-04-20T15:43:11.593Z,14.18
2023-04-20T15:45:44.730Z,14.10
2023-04-20T15:48:14.171Z,20.25
2023-04-20T15:50:42.785Z,15.13
2023-04-20T15:53:12.509Z,14.80
2023-04-20T15:55:41.267Z,23.10
2023-04-20T15:58:10.382Z,20.95
2023-04-20T16:00:40.403Z,16.67
2023-04-20T16:03:09.880Z,17.85
2023-04-20T16:05:39.586Z,20.38
2023-04-20T16:08:08.875Z,18.52
2023-04-20T16:10:37.605Z,18.42
2023-04-20T16:13:06.615Z,21.38
2023-04-20T16:15:36.184Z,19.42
2023-04-20T16:18:07.105Z,28.58
2023-04-20T16:20:36.379Z,12.63
2023-04-20T16:23:05.956Z,14.70
2023-04-20T16:25:35.357Z,21.48
2023-04-20T16:28:04.997Z,20.05
2023-04-20T16:30:34.430Z,17.38
2023-04-20T16:33:03.739Z,20.27
2023-04-20T16:35:34.629Z,21.50
2023-04-20T16:38:04.006Z,17.02
2023-04-20T16:40:32.985Z,20.33
2023-04-20T16:43:02.850Z,21.35
2023-04-20T16:45:32.337Z,21.45
2023-04-20T16:48:01.299Z,24.80
2023-04-20T16:50:30.379Z,20.00
2023-04-20T16:53:01.421Z,18.50
2023-04-20T16:55:32.358Z,19.65
2023-04-20T16:58:01.514Z,18.80
2023-04-20T17:00:31.778Z,18.20
2023-04-20T17:03:02.928Z,24.90
2023-04-20T17:05:42.131Z,17.48
2023-04-20T17:08:13.283Z,21.55
2023-04-20T17:10:42.723Z,15.83
2023-04-20T17:13:12.435Z,25.50
2023-04-20T17:15:43.050Z,20.77
2023-04-20T17:18:12.980Z,19.63
2023-04-20T17:20:43.110Z,23.40
2023-04-20T17:23:13.873Z,26.30
2023-04-20T17:25:45.901Z,17.33
2023-04-20T17:28:15.950Z,21.90
2023-04-20T17:30:45.009Z,22.07
2023-04-20T17:33:15.069Z,16.13
2023-04-20T17:35:46.391Z,21.77
2023-04-20T17:38:17.356Z,15.83
2023-04-20T17:40:46.868Z,22.73
2023-04-20T17:43:16.214Z,15.60
2023-04-20T17:45:46.039Z,18.97
2023-04-20T17:48:15.500Z,21.37
2023-04-20T17:50:44.686Z,20.50
2023-04-20T17:53:13.863Z,21.03
2023-04-20T17:55:44.789Z,18.70
2023-04-20T17:58:15.361Z,23.57
2023-04-20T18:00:45.070Z,21.53
2023-04-20T18:03:16.656Z,15.97
2023-04-20T18:05:47.012Z,17.27
2023-04-20T18:08:18.064Z,18.10
2023-04-20T18:10:49.480Z,19.90
2023-04-20T18:13:21.661Z,18.70
2023-04-20T18:15:53.709Z,19.40
2023-04-20T18:18:23.047Z,26.23
2023-04-20T18:20:52.262Z,18.00
2023-04-20T18:23:21.651Z,19.03
2023-04-20T18:25:53.653Z,21.63
2023-04-20T18:28:23.700Z,20.70
2023-04-20T18:30:53.310Z,24.50
2023-04-20T18:33:22.890Z,23.23
2023-04-20T18:35:52.038Z,22.07
2023-04-20T18:38:21.545Z,26.30
2023-04-20T18:40:53.098Z,19.47
2023-04-20T18:43:22.187Z,26.27
2023-04-20T18:45:51.689Z,25.10
2023-04-20T18:48:28.888Z,21.20
2023-04-20T18:50:58.670Z,26.63
2023-04-20T18:53:28.115Z,23.23
2023-04-20T18:56:02.422Z,19.57
2023-04-20T18:58:31.936Z,23.70
2023-04-20T19:01:03.879Z,21.17
2023-04-20T19:03:33.810Z,21.47
2023-04-20T19:06:03.284Z,24.57
2023-04-20T19:08:34.649Z,22.60
2023-04-20T19:11:05.677Z,27.13
2023-04-20T19:13:34.741Z,25.30
2023-04-20T19:16:05.496Z,30.73
2023-04-20T19:18:34.890Z,35.47
2023-04-20T19:21:04.538Z,28.37
2023-04-20T19:23:36.245Z,28.07
2023-04-20T19:26:08.377Z,31.60
2023-04-20T19:28:37.788Z,28.60
2023-04-20T19:31:09.094Z,25.47
2023-04-20T19:33:39.158Z,28.00
2023-04-20T19:36:08.592Z,24.17
2023-04-20T19:38:39.124Z,29.00
2023-04-20T19:41:09.810Z,23.20
2023-04-20T19:43:40.251Z,35.13
2023-04-20T19:46:10.192Z,23.03
2023-04-20T19:48:39.709Z,25.47
2023-04-20T19:51:10.759Z,28.13
2023-04-20T19:53:39.682Z,26.67
2023-04-20T19:56:10.303Z,30.73
2023-04-20T19:58:42.146Z,22.43
2023-04-20T20:01:11.843Z,22.43
2023-04-20T20:03:40.993Z,20.60
2023-04-20T20:06:10.467Z,22.63
2023-04-20T20:08:39.869Z,22.50
2023-04-20T20:11:11.771Z,24.33
2023-04-20T20:13:41.114Z,23.93
2023-04-20T20:16:10.593Z,24.80
2023-04-20T20:18:40.489Z,21.40
2023-04-20T20:21:10.161Z,28.57
2023-04-20T20:23:39.384Z,23.33
2023-04-20T20:26:08.953Z,22.73
2023-04-20T20:28:40.900Z,29.93
2023-04-20T20:31:11.121Z,22.13
2023-04-20T20:33:41.680Z,28.83
2023-04-20T20:36:11.306Z,21.93
2023-04-20T20:38:41.610Z,23.80
2023-04-20T20:41:11.621Z,26.33
2023-04-20T20:43:43.681Z,25.67
2023-04-20T20:46:12.717Z,24.77
2023-04-20T20:48:43.799Z,20.50
2023-04-20T20:51:13.742Z,23.97
2023-04-20T20:53:42.651Z,20.33
2023-04-20T20:56:11.820Z,24.20
2023-04-20T20:58:42.643Z,24.40
2023-04-20T21:01:13.226Z,28.10
2023-04-20T21:03:42.669Z,24.20
2023-04-20T21:06:17.658Z,28.90
2023-04-20T21:08:47.278Z,24.30
2023-04-20T21:11:18.504Z,22.07
2023-04-20T21:13:49.466Z,22.77
2023-04-20T21:16:18.797Z,31.83
2023-04-20T21:18:47.818Z,31.47
2023-04-20T21:21:17.383Z,28.70
2023-04-20T21:23:49.152Z,33.00
2023-04-20T21:26:19.054Z,26.93
2023-04-20T21:28:53.699Z,33.57
2023-04-20T21:31:23.715Z,31.70
2023-04-20T21:33:53.043Z,33.63
2023-04-20T21:36:23.072Z,33.83
2023-04-20T21:38:52.496Z,39.13
2023-04-20T21:41:22.122Z,29.67
2023-04-20T21:43:53.780Z,39.70
2023-04-20T21:46:22.990Z,28.20
2023-04-20T21:48:53.188Z,31.60
2023-04-20T21:51:22.759Z,33.37
2023-04-20T21:53:53.046Z,37.03
2023-04-20T21:56:22.084Z,34.70
2023-04-20T21:58:52.793Z,32.30
2023-04-20T22:01:21.772Z,36.97
2023-04-20T22:03:51.187Z,32.07
2023-04-20T22:06:20.868Z,40.40
2023-04-20T22:08:50.382Z,37.67
2023-04-20T22:11:19.646Z,32.10
2023-04-20T22:13:48.866Z,27.67
2023-04-20T22:16:22.038Z,29.30
2023-04-20T22:18:51.839Z,34.00
2023-04-20T22:21:21.113Z,33.30
2023-04-20T22:23:49.851Z,26.80
2023-04-20T22:26:19.862Z,33.27
2023-04-20T22:28:49.060Z,28.87
2023-04-20T22:31:19.764Z,28.57
2023-04-20T22:33:48.851Z,30.33
2023-04-20T22:36:19.081Z,26.53
2023-04-20T22:38:48.250Z,32.43
2023-04-20T22:41:17.651Z,37.37
2023-04-20T22:43:46.744Z,37.07
2023-04-20T22:46:15.743Z,32.17
2023-04-20T22:48:48.514Z,25.00
2023-04-20T22:51:18.364Z,32.17
2023-04-20T22:53:47.510Z,29.20
2023-04-20T22:56:16.540Z,29.73
2023-04-20T22:58:45.870Z,35.23
2023-04-20T23:01:15.171Z,32.90
2023-04-20T23:03:45.596Z,33.03
2023-04-20T23:06:17.117Z,30.37
2023-04-20T23:08:47.043Z,35.67
2023-04-20T23:11:17.711Z,33.40
2023-04-20T23:13:47.146Z,21.33
2023-04-20T23:16:16.986Z,35.67
2023-04-20T23:18:48.529Z,31.83
2023-04-20T23:21:17.676Z,25.07
2023-04-20T23:23:46.684Z,29.40
2023-04-20T23:26:18.277Z,27.40
2023-04-20T23:28:47.424Z,29.70
2023-04-20T23:31:16.967Z,22.87
2023-04-20T23:33:48.073Z,31.30
2023-04-20T23:36:17.349Z,31.50
2023-04-20T23:38:46.360Z,26.57
2023-04-20T23:41:16.960Z,29.43
2023-04-20T23:43:45.828Z,30.93
2023-04-20T23:46:15.804Z,36.77
2023-04-20T23:48:47.078Z,28.20
2023-04-20T23:51:15.887Z,33.50
2023-04-20T23:53:44.889Z,28.70
2023-04-20T23:56:14.198Z,26.57
2023-04-20T23:58:43.358Z,36.30
